createdAt,value
2023-04-15T00:01:45.707Z,2.95
2023-04-15T00:04:13.377Z,3.00
2023-04-15T00:06:41.059Z,3.07
2023-04-15T00:09:11.468Z,3.55
2023-04-15T00:11:39.526Z,2.85
2023-04-15T00:14:07.477Z,3.13
2023-04-15T00:16:38.678Z,2.95
2023-04-15T00:19:06.400Z,2.57
2023-04-15T00:21:35.912Z,2.80
2023-04-15T00:24:03.910Z,2.83
2023-04-15T00:26:33.192Z,2.85
2023-04-15T00:29:01.059Z,2.85
2023-04-15T00:31:29.817Z,3.50
2023-04-15T00:33:57.404Z,3.35
2023-04-15T00:36:25.702Z,3.60
2023-04-15T00:38:53.508Z,3.95
2023-04-15T00:41:21.126Z,4.55
2023-04-15T00:43:50.385Z,4.03
2023-04-15T00:46:18.463Z,4.00
2023-04-15T00:48:46.659Z,4.05
2023-04-15T00:51:16.102Z,4.70
2023-04-15T00:53:43.921Z,4.97
2023-04-15T00:56:12.051Z,4.67
2023-04-15T00:58:41.758Z,4.90
2023-04-15T01:01:11.486Z,6.43
2023-04-15T01:03:39.320Z,4.72
2023-04-15T01:06:07.484Z,5.32
2023-04-15T01:08:35.543Z,5.77
2023-04-15T01:11:04.112Z,4.85
2023-04-15T01:13:32.384Z,6.07
2023-04-15T01:16:00.228Z,5.10
2023-04-15T01:18:29.248Z,5.82
2023-04-15T01:20:57.353Z,5.17
2023-04-15T01:23:27.049Z,5.95
2023-04-15T01:25:57.393Z,5.10
2023-04-15T01:28:25.443Z,6.70
2023-04-15T01:31:06.006Z,6.22
2023-04-15T01:33:33.531Z,6.60
2023-04-15T01:36:01.612Z,5.57
2023-04-15T01:38:38.213Z,6.65
2023-04-15T01:41:08.224Z,6.25
2023-04-15T01:43:36.119Z,6.80
2023-04-15T01:46:04.049Z,6.63
2023-04-15T01:48:32.276Z,5.05
2023-04-15T01:51:00.100Z,6.90
2023-04-15T01:53:27.826Z,5.32
2023-04-15T01:55:55.600Z,5.45
2023-04-15T01:58:24.625Z,6.73
2023-04-15T02:00:52.385Z,5.90
2023-04-15T02:03:20.184Z,6.18
2023-04-15T02:05:48.029Z,6.32
2023-04-15T02:08:16.100Z,6.45
2023-04-15T02:10:43.796Z,6.40
2023-04-15T02:13:11.968Z,6.90
2023-04-15T02:15:41.188Z,6.07
2023-04-15T02:18:08.878Z,6.50
2023-04-15T02:20:36.789Z,6.28
2023-04-15T02:23:07.413Z,6.70
2023-04-15T02:25:34.963Z,5.57
2023-04-15T02:28:02.576Z,6.28
2023-04-15T02:30:30.543Z,5.78
2023-04-15T02:32:59.473Z,5.72
2023-04-15T02:35:27.224Z,5.87
2023-04-15T02:37:54.866Z,4.88
2023-04-15T02:40:22.792Z,5.82
2023-04-15T02:42:50.506Z,5.55
2023-04-15T02:45:20.512Z,5.10
2023-04-15T02:47:48.072Z,6.20
2023-04-15T02:50:17.312Z,4.82
2023-04-15T02:52:45.537Z,4.82
2023-04-15T02:55:13.271Z,5.55
2023-04-15T02:57:41.439Z,4.75
2023-04-15T03:00:11.774Z,5.30
2023-04-15T03:02:40.273Z,4.32
2023-04-15T03:05:09.233Z,5.00
2023-04-15T03:07:38.248Z,4.95
2023-04-15T03:10:06.298Z,5.07
2023-04-15T03:12:34.001Z,4.30
2023-04-15T03:15:09.172Z,5.07
2023-04-15T03:17:37.142Z,4.95
2023-04-15T03:20:05.895Z,5.20
2023-04-15T03:22:33.928Z,5.50
2023-04-15T03:25:04.182Z,5.33
2023-04-15T03:27:32.053Z,4.53
2023-04-15T03:29:59.657Z,5.53
2023-04-15T03:32:27.374Z,5.22
2023-04-15T03:34:54.997Z,5.63
2023-04-15T03:37:22.780Z,5.47
2023-04-15T03:39:50.524Z,4.93
2023-04-15T03:42:20.080Z,5.30
2023-04-15T03:44:47.705Z,5.40
2023-04-15T03:47:15.885Z,5.00
2023-04-15T03:49:43.885Z,4.87
2023-04-15T03:52:11.802Z,5.22
2023-04-15T03:54:39.996Z,4.85
2023-04-15T03:57:07.686Z,5.05
2023-04-15T03:59:36.848Z,4.65
2023-04-15T04:02:04.498Z,5.23
2023-04-15T04:04:32.194Z,4.63
2023-04-15T04:06:59.896Z,4.60
2023-04-15T04:09:27.829Z,4.93
2023-04-15T04:11:56.208Z,4.68
2023-04-15T04:14:29.286Z,4.60
2023-04-15T04:16:58.723Z,4.88
2023-04-15T04:19:26.340Z,4.80
2023-04-15T04:21:53.987Z,4.40
2023-04-15T04:24:21.768Z,4.95
2023-04-15T04:26:49.322Z,5.67
2023-04-15T04:29:17.289Z,5.22
2023-04-15T04:31:45.054Z,5.50
2023-04-15T04:34:14.050Z,4.50
2023-04-15T04:36:41.832Z,5.22
2023-04-15T04:39:09.456Z,5.10
2023-04-15T04:41:37.049Z,4.47
2023-04-15T04:44:05.040Z,5.50
2023-04-15T04:46:32.823Z,4.70
2023-04-15T04:49:00.387Z,5.32
2023-04-15T04:51:29.526Z,4.87
2023-04-15T04:53:57.361Z,4.53
2023-04-15T04:56:24.933Z,4.68
2023-04-15T04:58:52.668Z,4.13
2023-04-15T05:01:20.801Z,4.80
2023-04-15T05:03:48.592Z,4.70
2023-04-15T05:06:16.458Z,4.68
2023-04-15T05:08:47.427Z,5.32
2023-04-15T05:11:15.012Z,4.70
2023-04-15T05:13:45.502Z,5.47
2023-04-15T05:16:13.303Z,5.10
2023-04-15T05:18:40.851Z,4.93
2023-04-15T05:21:08.582Z,5.00
2023-04-15T05:23:36.203Z,4.25
2023-04-15T05:26:05.112Z,4.68
2023-04-15T05:28:32.961Z,4.37
2023-04-15T05:31:00.652Z,4.90
2023-04-15T05:33:28.489Z,4.22
2023-04-15T05:35:56.410Z,4.40
2023-04-15T05:38:24.044Z,4.35
2023-04-15T05:40:53.347Z,4.40
2023-04-15T05:43:22.401Z,3.83
2023-04-15T05:45:50.605Z,4.82
2023-04-15T05:48:18.165Z,4.53
2023-04-15T05:50:45.893Z,4.57
2023-04-15T05:53:13.513Z,4.17
2023-04-15T05:55:41.075Z,4.40
2023-04-15T05:58:08.761Z,3.95
2023-04-15T06:00:37.840Z,4.30
2023-04-15T06:03:06.230Z,3.90
2023-04-15T06:05:34.727Z,4.23
2023-04-15T06:08:02.627Z,3.78
2023-04-15T06:10:30.887Z,4.70
2023-04-15T06:12:58.507Z,4.55
2023-04-15T06:15:26.128Z,4.07
2023-04-15T06:17:55.176Z,3.60
2023-04-15T06:23:10.968Z,4.00
2023-04-15T06:25:38.547Z,4.85
2023-04-15T06:28:10.849Z,4.40
2023-04-15T06:30:38.618Z,4.73
2023-04-15T06:33:07.900Z,4.13
2023-04-15T06:35:35.916Z,5.10
2023-04-15T06:38:03.710Z,4.50
2023-04-15T06:40:31.306Z,4.65
2023-04-15T06:42:59.121Z,4.63
2023-04-15T06:45:26.919Z,4.68
2023-04-15T06:47:54.594Z,5.65
2023-04-15T06:50:23.987Z,5.05
2023-04-15T06:52:53.869Z,5.47
2023-04-15T06:55:21.515Z,4.93
2023-04-15T06:57:49.137Z,5.35
2023-04-15T07:00:17.642Z,5.80
2023-04-15T07:02:45.608Z,5.07
2023-04-15T07:05:13.167Z,5.38
2023-04-15T07:07:42.285Z,5.77
2023-04-15T07:10:11.976Z,6.00
2023-04-15T07:12:39.727Z,7.22
2023-04-15T07:15:08.236Z,6.97
2023-04-15T07:17:36.147Z,7.10
2023-04-15T07:20:05.056Z,6.93
2023-04-15T07:22:32.711Z,5.95
2023-04-15T07:25:02.082Z,6.32
2023-04-15T07:27:29.820Z,6.50
2023-04-15T07:29:57.611Z,6.45
2023-04-15T07:32:29.442Z,5.90
2023-04-15T07:34:57.085Z,5.47
2023-04-15T07:37:29.504Z,5.55
2023-04-15T07:39:57.464Z,5.80
2023-04-15T07:42:26.521Z,5.82
2023-04-15T07:44:54.348Z,5.80
2023-04-15T07:47:22.178Z,5.10
2023-04-15T07:49:51.435Z,5.30
2023-04-15T07:52:20.028Z,6.38
2023-04-15T07:54:48.279Z,5.85
2023-04-15T07:57:17.021Z,6.13
2023-04-15T07:59:46.247Z,5.57
2023-04-15T08:02:14.356Z,5.38
2023-04-15T08:04:42.575Z,5.63
2023-04-15T08:07:13.591Z,6.13
2023-04-15T08:09:41.303Z,5.07
2023-04-15T08:12:12.485Z,5.30
2023-04-15T08:14:40.437Z,5.05
2023-04-15T08:17:09.374Z,4.50
2023-04-15T08:19:36.952Z,4.88
2023-04-15T08:22:04.797Z,4.80
2023-04-15T08:24:37.727Z,4.88
2023-04-15T08:27:08.156Z,4.63
2023-04-15T08:29:36.388Z,4.10
2023-04-15T08:32:03.938Z,4.07
2023-04-15T08:34:33.112Z,4.43
2023-04-15T08:37:00.972Z,4.22
2023-04-15T08:39:29.247Z,4.50
2023-04-15T08:41:58.835Z,4.00
2023-04-15T08:44:27.076Z,5.15
2023-04-15T08:46:55.656Z,4.20
2023-04-15T08:49:23.526Z,4.80
2023-04-15T08:51:52.663Z,4.10
2023-04-15T08:54:26.753Z,4.13
2023-04-15T08:56:55.105Z,4.30
2023-04-15T08:59:26.209Z,3.40
2023-04-15T09:01:56.577Z,2.78
2023-04-15T09:04:24.260Z,3.17
2023-04-15T09:06:53.493Z,3.42
2023-04-15T09:09:21.050Z,3.25
2023-04-15T09:11:50.005Z,3.20
2023-04-15T09:14:18.381Z,3.65
2023-04-15T09:16:59.816Z,3.55
2023-04-15T09:19:30.950Z,3.65
2023-04-15T09:22:00.476Z,3.15
2023-04-15T09:24:37.771Z,2.83
2023-04-15T09:27:06.169Z,2.47
2023-04-15T09:29:37.116Z,3.08
2023-04-15T09:32:12.102Z,3.03
2023-04-15T09:34:39.824Z,2.20
2023-04-15T09:37:10.808Z,3.27
2023-04-15T09:39:50.095Z,2.85
2023-04-15T09:42:24.697Z,2.28
2023-04-15T09:44:54.129Z,1.80
2023-04-15T09:47:29.013Z,3.20
2023-04-15T09:49:58.463Z,3.17
2023-04-15T09:52:27.459Z,2.55
2023-04-15T09:54:56.523Z,2.75
2023-04-15T09:57:24.859Z,2.63
2023-04-15T09:59:52.544Z,2.83
2023-04-15T10:02:20.795Z,2.30
2023-04-15T10:04:49.341Z,2.55
2023-04-15T10:07:20.531Z,2.40
2023-04-15T10:10:05.901Z,2.10
2023-04-15T10:12:34.157Z,1.67
2023-04-15T10:15:04.838Z,2.30
2023-04-15T10:17:35.616Z,2.00
2023-04-15T10:20:04.792Z,1.95
2023-04-15T10:22:32.921Z,1.88
2023-04-15T10:25:04.345Z,1.90
2023-04-15T10:27:32.146Z,2.30
2023-04-15T10:30:01.663Z,2.03
2023-04-15T10:32:29.587Z,1.42
2023-04-15T10:34:58.192Z,2.03
2023-04-15T10:37:34.867Z,2.13
2023-04-15T10:40:23.938Z,1.83
2023-04-15T10:42:51.675Z,2.20
2023-04-15T10:45:19.894Z,1.92
2023-04-15T10:47:48.376Z,2.33
2023-04-15T10:50:16.509Z,2.00
2023-04-15T10:52:45.222Z,2.30
2023-04-15T10:55:27.412Z,2.10
2023-04-15T10:57:56.100Z,2.10
2023-04-15T11:00:26.558Z,2.45
2023-04-15T11:02:55.731Z,2.20
2023-04-15T11:05:24.044Z,2.60
2023-04-15T11:07:53.104Z,2.50
2023-04-15T11:10:35.749Z,2.95
2023-04-15T11:13:06.538Z,1.52
2023-04-15T11:15:35.199Z,2.40
2023-04-15T11:18:10.603Z,1.87
2023-04-15T11:20:38.695Z,1.80
2023-04-15T11:23:14.368Z,1.85
2023-04-15T11:25:43.808Z,2.17
2023-04-15T11:28:13.846Z,2.30
2023-04-15T11:30:41.941Z,2.30
2023-04-15T11:33:14.225Z,1.90
2023-04-15T11:35:43.007Z,1.95
2023-04-15T11:38:11.895Z,2.13
2023-04-15T11:40:40.018Z,1.88
2023-04-15T11:43:08.376Z,1.30
2023-04-15T11:45:37.892Z,1.95
2023-04-15T11:48:09.682Z,1.40
2023-04-15T11:50:37.912Z,2.10
2023-04-15T11:53:08.338Z,1.98
2023-04-15T11:55:43.247Z,1.73
2023-04-15T11:58:11.478Z,1.98
2023-04-15T12:00:41.218Z,2.28
2023-04-15T12:03:16.305Z,2.05
2023-04-15T12:06:03.117Z,1.40
2023-04-15T12:08:45.622Z,1.50
2023-04-15T12:11:13.354Z,1.92
2023-04-15T12:13:44.677Z,2.00
2023-04-15T12:16:13.778Z,1.92
2023-04-15T12:18:41.391Z,1.60
2023-04-15T12:21:10.811Z,1.23
2023-04-15T12:23:38.768Z,2.03
2023-04-15T12:26:06.669Z,2.30
2023-04-15T12:28:35.406Z,2.45
2023-04-15T12:31:08.154Z,2.13
2023-04-15T12:33:37.180Z,1.47
2023-04-15T12:36:06.354Z,2.70
2023-04-15T12:38:34.004Z,1.75
2023-04-15T12:41:01.895Z,1.33
2023-04-15T12:43:29.536Z,1.77
2023-04-15T12:46:00.772Z,1.53
2023-04-15T12:48:28.327Z,1.20
2023-04-15T12:50:57.386Z,1.63
2023-04-15T12:53:25.095Z,2.50
2023-04-15T12:55:52.710Z,1.80
2023-04-15T12:58:20.299Z,1.30
2023-04-15T13:00:49.724Z,2.25
2023-04-15T13:03:17.565Z,1.90
2023-04-15T13:05:45.479Z,1.75
2023-04-15T13:08:15.072Z,1.65
2023-04-15T13:10:43.621Z,1.53
2023-04-15T13:13:11.369Z,1.55
2023-04-15T13:15:38.960Z,1.65
2023-04-15T13:18:07.749Z,1.48
2023-04-15T13:20:35.457Z,1.40
2023-04-15T13:23:03.417Z,1.30
2023-04-15T13:25:32.456Z,1.15
2023-04-15T13:28:01.266Z,1.00
2023-04-15T13:30:29.353Z,1.60
2023-04-15T13:32:59.406Z,1.50
2023-04-15T13:35:27.192Z,2.00
2023-04-15T13:37:55.112Z,2.00
2023-04-15T13:40:22.735Z,1.75
2023-04-15T13:42:52.374Z,1.70
2023-04-15T13:45:20.177Z,1.45
2023-04-15T13:47:47.794Z,1.70
2023-04-15T13:50:15.825Z,1.35
2023-04-15T13:52:47.307Z,1.52
2023-04-15T13:55:19.167Z,1.85
2023-04-15T13:57:48.574Z,1.50
2023-04-15T14:00:17.803Z,1.70
2023-04-15T14:02:45.965Z,1.90
2023-04-15T14:05:13.765Z,2.00
2023-04-15T14:07:41.951Z,1.58
2023-04-15T14:10:09.765Z,2.03
2023-04-15T14:12:37.385Z,1.57
2023-04-15T14:15:05.303Z,1.73
2023-04-15T14:17:35.347Z,1.35
2023-04-15T14:20:03.304Z,3.10
2023-04-15T14:22:30.964Z,1.60
2023-04-15T14:24:58.613Z,1.53
2023-04-15T14:27:27.157Z,1.35
2023-04-15T14:29:54.938Z,1.50
2023-04-15T14:32:22.528Z,1.75
2023-04-15T14:34:51.697Z,1.50
2023-04-15T14:37:19.384Z,1.40
2023-04-15T14:39:47.237Z,2.00
2023-04-15T14:42:15.127Z,1.60
2023-04-15T14:44:44.718Z,1.63
2023-04-15T14:47:12.341Z,1.33
2023-04-15T14:49:42.595Z,1.80
2023-04-15T14:52:11.600Z,1.60
2023-04-15T14:54:39.205Z,1.88
2023-04-15T14:57:07.981Z,1.20
2023-04-15T14:59:35.781Z,2.13
2023-04-15T15:02:03.901Z,1.90
2023-04-15T15:04:33.517Z,1.80
2023-04-15T15:07:01.557Z,1.65
2023-04-15T15:09:30.468Z,1.60
2023-04-15T15:11:58.263Z,1.20
2023-04-15T15:14:26.441Z,1.43
2023-04-15T15:16:54.244Z,1.77
2023-04-15T15:19:22.068Z,1.70
2023-04-15T15:21:49.737Z,1.45
2023-04-15T15:24:17.482Z,1.70
2023-04-15T15:26:46.577Z,1.20
2023-04-15T15:29:14.844Z,1.45
2023-04-15T15:31:42.574Z,1.52
2023-04-15T15:34:15.191Z,1.52
2023-04-15T15:36:42.944Z,1.42
2023-04-15T15:39:11.419Z,1.20
2023-04-15T15:41:39.091Z,1.27
2023-04-15T15:44:08.595Z,1.35
2023-04-15T15:46:36.223Z,0.98
2023-04-15T15:49:04.336Z,1.30
2023-04-15T15:51:32.156Z,1.40
2023-04-15T15:53:59.772Z,1.30
2023-04-15T15:56:35.294Z,1.20
2023-04-15T15:59:03.024Z,1.27
2023-04-15T16:01:32.255Z,1.30
2023-04-15T16:04:01.359Z,1.13
2023-04-15T16:06:29.363Z,1.42
2023-04-15T16:08:56.923Z,0.82
2023-04-15T16:11:25.047Z,1.10
2023-04-15T16:13:52.748Z,0.90
2023-04-15T16:16:20.421Z,1.00
2023-04-15T16:18:51.209Z,0.93
2023-04-15T16:21:20.219Z,0.70
2023-04-15T16:23:47.801Z,0.93
2023-04-15T16:26:16.457Z,1.23
2023-04-15T16:28:44.012Z,1.10
2023-04-15T16:31:12.851Z,0.85
2023-04-15T16:33:40.603Z,1.08
2023-04-15T16:36:09.637Z,1.10
2023-04-15T16:38:37.335Z,0.80
2023-04-15T16:41:06.533Z,0.93
2023-04-15T16:43:34.257Z,1.52
2023-04-15T16:46:01.846Z,1.58
2023-04-15T16:48:29.821Z,0.90
2023-04-15T16:50:58.202Z,0.98
2023-04-15T16:53:27.123Z,1.00
2023-04-15T16:55:54.867Z,2.10
2023-04-15T16:58:22.537Z,1.70
2023-04-15T17:00:51.109Z,1.30
2023-04-15T17:03:18.905Z,1.02
2023-04-15T17:05:46.645Z,0.90
2023-04-15T17:08:14.216Z,1.05
2023-04-15T17:10:44.278Z,1.00
2023-04-15T17:13:11.970Z,1.13
2023-04-15T17:15:40.813Z,1.73
2023-04-15T17:18:09.892Z,1.53
2023-04-15T17:20:37.626Z,2.03
2023-04-15T17:23:06.819Z,1.95
2023-04-15T17:25:34.694Z,1.35
2023-04-15T17:28:04.214Z,2.08
2023-04-15T17:30:31.769Z,1.80
2023-04-15T17:32:59.526Z,1.60
2023-04-15T17:35:27.390Z,0.95
2023-04-15T17:37:57.209Z,1.15
2023-04-15T17:40:25.048Z,1.00
2023-04-15T17:42:52.829Z,1.10
2023-04-15T17:45:21.749Z,0.90
2023-04-15T17:47:49.423Z,0.82
2023-04-15T17:50:17.938Z,1.02
2023-04-15T17:52:48.417Z,1.00
2023-04-15T17:55:16.424Z,1.13
2023-04-15T17:57:46.288Z,1.00
2023-04-15T18:00:14.765Z,1.60
2023-04-15T18:02:44.316Z,1.42
2023-04-15T18:05:12.312Z,1.10
2023-04-15T18:07:39.909Z,1.20
2023-04-15T18:10:08.571Z,1.00
2023-04-15T18:12:36.327Z,1.17
2023-04-15T18:15:04.367Z,1.00
2023-04-15T18:17:32.029Z,0.93
2023-04-15T18:20:01.143Z,0.97
2023-04-15T18:22:28.764Z,1.20
2023-04-15T18:24:59.147Z,0.85
2023-04-15T18:27:26.821Z,1.00
2023-04-15T18:29:54.383Z,1.13
2023-04-15T18:32:22.077Z,1.13
2023-04-15T18:34:49.865Z,1.00
2023-04-15T18:37:18.817Z,1.25
2023-04-15T18:39:46.508Z,1.42
2023-04-15T18:42:16.099Z,1.52
2023-04-15T18:44:43.742Z,2.50
2023-04-15T18:47:11.452Z,3.40
2023-04-15T18:49:39.254Z,3.25
2023-04-15T18:52:07.148Z,1.77
2023-04-15T18:54:37.635Z,2.33
2023-04-15T18:57:05.787Z,1.63
2023-04-15T18:59:33.765Z,1.73
2023-04-15T19:02:02.139Z,1.50
2023-04-15T19:04:30.050Z,1.35
2023-04-15T19:06:58.782Z,1.50
2023-04-15T19:09:26.434Z,1.67
2023-04-15T19:11:56.802Z,1.27
2023-04-15T19:14:24.509Z,1.25
2023-04-15T19:16:52.176Z,1.55
2023-04-15T19:19:19.864Z,1.75
2023-04-15T19:21:49.745Z,1.20
2023-04-15T19:24:18.206Z,1.27
2023-04-15T19:26:48.308Z,2.67
2023-04-15T19:29:17.766Z,2.42
2023-04-15T19:31:45.516Z,1.80
2023-04-15T19:34:13.278Z,2.13
2023-04-15T19:36:40.862Z,3.03
2023-04-15T19:39:08.668Z,4.18
2023-04-15T19:41:36.465Z,6.82
2023-04-15T19:44:04.456Z,8.27
2023-04-15T19:46:33.616Z,6.90
2023-04-15T19:49:01.460Z,6.70
2023-04-15T19:51:29.429Z,4.25
2023-04-15T19:53:57.481Z,4.38
2023-04-15T19:56:25.334Z,3.20
2023-04-15T19:58:53.971Z,3.40
2023-04-15T20:01:21.873Z,2.83
2023-04-15T20:03:52.378Z,2.80
2023-04-15T20:06:19.981Z,2.65
2023-04-15T20:08:47.888Z,2.40
2023-04-15T20:11:16.339Z,3.00
2023-04-15T20:13:43.973Z,2.63
2023-04-15T20:16:11.817Z,2.38
2023-04-15T20:18:39.447Z,3.10
2023-04-15T20:21:08.548Z,2.90
2023-04-15T20:23:37.084Z,3.43
2023-04-15T20:26:04.831Z,3.55
2023-04-15T20:28:32.425Z,5.00
2023-04-15T20:31:00.501Z,5.05
2023-04-15T20:33:28.435Z,5.05
2023-04-15T20:35:56.509Z,4.60
2023-04-15T20:38:25.608Z,4.18
2023-04-15T20:40:53.314Z,4.50
2023-04-15T20:43:22.311Z,4.60
2023-04-15T20:45:50.971Z,3.80
2023-04-15T20:48:19.929Z,4.40
2023-04-15T20:50:47.487Z,3.97
2023-04-15T20:53:15.300Z,4.15
2023-04-15T20:55:44.773Z,3.92
2023-04-15T20:58:12.664Z,3.38
2023-04-15T21:00:40.483Z,3.57
2023-04-15T21:03:08.429Z,2.85
2023-04-15T21:05:36.281Z,3.17
2023-04-15T21:08:03.902Z,2.70
2023-04-15T21:10:35.377Z,3.22
2023-04-15T21:13:04.423Z,3.87
2023-04-15T21:15:31.998Z,5.18
2023-04-15T21:17:59.878Z,5.10
2023-04-15T21:20:28.043Z,5.10
2023-04-15T21:22:58.478Z,4.63
2023-04-15T21:25:26.378Z,5.57
2023-04-15T21:27:54.300Z,5.05
2023-04-15T21:30:25.509Z,4.72
2023-04-15T21:32:56.001Z,4.18
2023-04-15T21:35:23.736Z,4.50
2023-04-15T21:37:51.278Z,4.33
2023-04-15T21:40:19.554Z,4.28
2023-04-15T21:42:48.777Z,5.28
2023-04-15T21:45:16.579Z,6.13
2023-04-15T21:47:57.023Z,6.10
2023-04-15T21:50:33.317Z,6.20
2023-04-15T21:53:06.613Z,5.88
2023-04-15T21:55:34.452Z,5.93
2023-04-15T21:58:02.174Z,3.00
2023-04-15T22:00:30.113Z,3.25
2023-04-15T22:02:59.782Z,2.87
2023-04-15T22:05:27.572Z,2.88
2023-04-15T22:07:59.836Z,3.17
2023-04-15T22:10:28.603Z,3.03
2023-04-15T22:12:56.988Z,3.20
2023-04-15T22:15:24.711Z,3.07
2023-04-15T22:17:52.292Z,3.17
2023-04-15T22:20:21.910Z,3.53
2023-04-15T22:22:49.570Z,3.70
2023-04-15T22:25:22.442Z,4.57
2023-04-15T22:27:50.138Z,4.07
2023-04-15T22:30:17.682Z,3.88
2023-04-15T22:32:45.426Z,4.05
2023-04-15T22:35:13.225Z,3.85
2023-04-15T22:37:42.202Z,3.35
2023-04-15T22:40:11.827Z,3.13
2023-04-15T22:42:39.909Z,3.65
2023-04-15T22:45:08.425Z,3.80
2023-04-15T22:47:36.241Z,3.60
2023-04-15T22:50:03.903Z,3.33
2023-04-15T22:52:31.567Z,3.33
2023-04-15T22:55:00.688Z,3.10
2023-04-15T22:57:28.880Z,3.40
2023-04-15T22:59:56.435Z,3.38
2023-04-15T23:02:24.294Z,3.60
2023-04-15T23:04:52.296Z,3.23
2023-04-15T23:07:19.904Z,3.10
2023-04-15T23:09:47.912Z,3.17
2023-04-15T23:12:17.510Z,2.92
2023-04-15T23:14:45.115Z,2.55
2023-04-15T23:17:12.813Z,2.67
2023-04-15T23:19:40.724Z,2.70
2023-04-15T23:22:10.563Z,2.90
2023-04-15T23:24:38.492Z,2.90
2023-04-15T23:27:06.127Z,2.70
2023-04-15T23:29:36.081Z,2.93
2023-04-15T23:32:03.830Z,2.85
2023-04-15T23:34:35.194Z,3.13
2023-04-15T23:37:03.103Z,3.10
2023-04-15T23:39:31.296Z,3.20
2023-04-15T23:41:58.963Z,3.07
2023-04-15T23:44:27.050Z,3.33
2023-04-15T23:46:56.257Z,2.97
2023-04-15T23:49:24.030Z,2.45
2023-04-15T23:51:51.653Z,3.00
2023-04-15T23:54:19.528Z,2.80
2023-04-15T23:56:48.281Z,2.35
2023-04-15T23:59:16.182Z,2.72
